Tropical Cyclones
[Index]
Main Index Home Page Stock Weather Photos Extreme Storms Discussion Storm News and Storm Chasing Reports Tropical Cyclones / Hurricanes / Typhoons Weather Data and Links Wild Fires / Bushfires Weather Observation Techniques Weather Picture Catalogue Tornado Pictures and Reports Stock Video Footage and DVDs for sale
Season 2009-2010 Tropical Cyclone ROBYN Track Map
Season 2009-2010 Summaries: [BoM-AU] [JTWC-AU] [JTWC-SIO] [JTWC-SPAC] [JTWC-SH]
<<- Previous TC | JTWC 2009-2010 Season | Next TC ->>

click for intensity scale information  Lat/long Grid: Show Hide

 Date Labels: Show Hide

Joint Typhoon Warning Centre Cyclone Data

Name: ROBYN

01 Apr 2010 06:00 UTC to 10 Apr 2010 00:00 UTC

    date/time    lat    long     hPa   cat  kts
2010-04-01 06    9.0    93.0    1007         20          
2010-04-01 12    9.5    93.2    1004         25          
2010-04-01 18   10.0    93.4    1004         25          
2010-04-02 00   10.3    92.6    1000         30          
2010-04-02 06   11.0    92.3     996         35          
2010-04-02 12   11.7    92.4     996         35          
2010-04-02 18   12.2    92.4     993    1    40          
2010-04-03 00   12.7    92.4     989    1    45          
2010-04-03 06   13.1    92.4     985    1    50          
2010-04-03 06   13.1    92.4     985    1    50          
2010-04-03 12   13.5    92.4     985    1    50          
2010-04-03 18   13.9    92.4     985    1    50          
2010-04-04 00   14.4    92.4     985    1    50          
2010-04-04 06   14.7    92.1     982    2    55          
2010-04-04 06   14.7    92.1     982    2    55          
2010-04-04 12   14.9    91.6     982    2    55          
2010-04-04 12   14.9    91.6     982    2    55          
2010-04-04 18   15.2    91.2     978    2    60          
2010-04-04 18   15.2    91.2     978    2    60          
2010-04-05 00   15.7    91.4     974    2    65          
2010-04-05 00   15.7    91.4     974    2    65          
2010-04-05 06   16.1    91.7     978    2    60          
2010-04-05 06   16.1    91.7     978    2    60          
2010-04-05 12   16.2    92.0     982    2    55          
2010-04-05 12   16.2    92.0     982    2    55          
2010-04-05 18   16.0    92.2     985    1    50          
2010-04-06 00   15.7    92.0     989    1    45          
2010-04-06 06   15.4    91.8     996         35          
2010-04-06 12   15.2    91.4    1000         30          
2010-04-06 18   15.4    91.0    1000         30          
2010-04-07 00   15.8    90.7    1000         30          
2010-04-07 06   16.1    90.1    1000         30          
2010-04-07 12   16.2    89.4    1004         25          
2010-04-07 18   16.2    88.6    1004         25          
2010-04-08 00   16.1    87.7    1004         25          
2010-04-08 06   16.1    86.8    1004         25          
2010-04-08 12   16.2    85.8    1004         25          
2010-04-08 18   16.3    84.7    1004         25          
2010-04-09 00   16.4    83.3    1007         20          
2010-04-09 06   16.0    82.0    1007         20          
2010-04-09 12   16.0    80.8    1007         20          
2010-04-09 18   16.6    79.9    1010         15          
2010-04-10 00   17.5    79.3    1010         15          
Winds are 1-min average.

Tropical cyclone tracks developed by Michael Bath using data from the Joint Typhoon Warning Centre Best Tracks and Google Maps.


[Australian Severe Weather index] [Copyright Notice] [Email Contacts] [Search This Site] [Privacy Policy]
Document: tropical_cyclone_robyn.htm Updated: 28 June 2017